sensor_id;sensor_type;location;lat;lon;timestamp;pressure;altitude;pressure_sealevel;temperature;humidity
51031;BME280;37058;41.442;23.240;2022-08-06T00:02:07;99991.75;;;25.19;54.04
51031;BME280;37058;41.442;23.240;2022-08-06T00:04:33;99991.75;;;25.19;53.83
51031;BME280;37058;41.442;23.240;2022-08-06T00:06:59;99996.44;;;25.15;54.02
51031;BME280;37058;41.442;23.240;2022-08-06T00:09:25;99995.59;;;25.14;54.09
51031;BME280;37058;41.442;23.240;2022-08-06T00:12:00;99994.44;;;25.15;54.10
51031;BME280;37058;41.442;23.240;2022-08-06T00:14:28;99994.78;;;25.14;53.95
51031;BME280;37058;41.442;23.240;2022-08-06T00:16:54;99993.28;;;25.16;53.53
51031;BME280;37058;41.442;23.240;2022-08-06T00:19:21;99991.19;;;25.13;53.16
51031;BME280;37058;41.442;23.240;2022-08-06T00:21:47;99998.75;;;25.13;52.47
51031;BME280;37058;41.442;23.240;2022-08-06T00:24:14;99991.19;;;25.13;52.41
51031;BME280;37058;41.442;23.240;2022-08-06T00:26:40;99992.44;;;25.16;52.31
51031;BME280;37058;41.442;23.240;2022-08-06T00:29:06;99998.88;;;25.16;52.35
51031;BME280;37058;41.442;23.240;2022-08-06T00:31:33;100001.66;;;25.16;52.41
51031;BME280;37058;41.442;23.240;2022-08-06T00:33:59;100001.66;;;25.16;52.38
51031;BME280;37058;41.442;23.240;2022-08-06T00:36:31;99997.72;;;25.17;52.53
51031;BME280;37058;41.442;23.240;2022-08-06T00:39:03;99994.91;;;25.17;53.99
51031;BME280;37058;41.442;23.240;2022-08-06T00:41:31;99991.13;;;25.09;54.83
51031;BME280;37058;41.442;23.240;2022-08-06T00:43:59;99997.13;;;24.96;56.05
51031;BME280;37058;41.442;23.240;2022-08-06T00:46:26;99987.88;;;24.92;56.28
51031;BME280;37058;41.442;23.240;2022-08-06T00:48:52;100002.53;;;24.88;56.76
51031;BME280;37058;41.442;23.240;2022-08-06T00:51:18;99988.66;;;24.76;57.08
51031;BME280;37058;41.442;23.240;2022-08-06T00:53:45;99998.00;;;24.68;57.46
51031;BME280;37058;41.442;23.240;2022-08-06T00:56:11;100006.84;;;24.70;57.58
51031;BME280;37058;41.442;23.240;2022-08-06T00:58:37;99997.53;;;24.66;57.26
51031;BME280;37058;41.442;23.240;2022-08-06T01:01:03;99997.72;;;24.57;57.00
51031;BME280;37058;41.442;23.240;2022-08-06T01:03:29;100007.09;;;24.49;57.46
51031;BME280;37058;41.442;23.240;2022-08-06T01:05:56;100010.09;;;24.44;58.78
51031;BME280;37058;41.442;23.240;2022-08-06T01:08:21;100013.50;;;24.37;58.25
51031;BME280;37058;41.442;23.240;2022-08-06T01:10:47;100021.41;;;24.35;58.39
51031;BME280;37058;41.442;23.240;2022-08-06T01:13:13;100020.84;;;24.30;57.92
51031;BME280;37058;41.442;23.240;2022-08-06T01:15:42;100023.81;;;24.21;58.25
51031;BME280;37058;41.442;23.240;2022-08-06T01:18:18;100018.72;;;24.11;58.49
51031;BME280;37058;41.442;23.240;2022-08-06T01:21:18;100024.63;;;24.09;58.79
51031;BME280;37058;41.442;23.240;2022-08-06T01:30:22;100025.13;;;23.99;59.07
51031;BME280;37058;41.442;23.240;2022-08-06T01:33:16;100018.53;;;23.91;59.38
51031;BME280;37058;41.442;23.240;2022-08-06T01:35:51;100023.88;;;23.84;59.23
51031;BME280;37058;41.442;23.240;2022-08-06T01:38:39;100022.38;;;23.74;59.31
51031;BME280;37058;41.442;23.240;2022-08-06T01:41:10;100021.31;;;23.67;59.33
51031;BME280;37058;41.442;23.240;2022-08-06T01:43:37;100017.16;;;23.61;59.30
51031;BME280;37058;41.442;23.240;2022-08-06T01:46:07;100017.41;;;23.55;58.95
51031;BME280;37058;41.442;23.240;2022-08-06T01:48:36;100024.97;;;23.55;58.76
51031;BME280;37058;41.442;23.240;2022-08-06T01:51:04;100030.88;;;23.53;58.85
51031;BME280;37058;41.442;23.240;2022-08-06T01:53:36;100023.69;;;23.52;58.81
51031;BME280;37058;41.442;23.240;2022-08-06T01:56:06;100035.63;;;23.53;58.27
51031;BME280;37058;41.442;23.240;2022-08-06T01:58:41;100027.97;;;23.50;59.08
51031;BME280;37058;41.442;23.240;2022-08-06T02:01:12;100023.56;;;23.49;58.70
51031;BME280;37058;41.442;23.240;2022-08-06T02:03:45;100024.34;;;23.49;58.61
51031;BME280;37058;41.442;23.240;2022-08-06T02:06:27;100028.78;;;23.50;58.36
51031;BME280;37058;41.442;23.240;2022-08-06T02:08:55;100033.56;;;23.50;58.42
51031;BME280;37058;41.442;23.240;2022-08-06T02:11:22;100031.69;;;23.54;57.49
51031;BME280;37058;41.442;23.240;2022-08-06T02:13:48;100025.28;;;23.53;58.13
51031;BME280;37058;41.442;23.240;2022-08-06T02:16:16;100032.25;;;23.59;57.06
51031;BME280;37058;41.442;23.240;2022-08-06T02:18:45;100038.28;;;23.62;56.71
51031;BME280;37058;41.442;23.240;2022-08-06T02:21:17;100037.16;;;23.63;58.70
51031;BME280;37058;41.442;23.240;2022-08-06T02:23:44;100032.00;;;23.65;58.79
51031;BME280;37058;41.442;23.240;2022-08-06T02:26:12;100032.13;;;23.68;58.51
51031;BME280;37058;41.442;23.240;2022-08-06T02:28:42;100032.84;;;23.65;58.98
51031;BME280;37058;41.442;23.240;2022-08-06T02:31:09;100035.50;;;23.62;59.17
51031;BME280;37058;41.442;23.240;2022-08-06T02:33:35;100042.25;;;23.61;58.83
51031;BME280;37058;41.442;23.240;2022-08-06T02:36:18;100041.06;;;23.62;57.82
51031;BME280;37058;41.442;23.240;2022-08-06T02:39:24;100041.88;;;23.62;57.55
51031;BME280;37058;41.442;23.240;2022-08-06T02:42:31;100047.59;;;23.66;57.32
51031;BME280;37058;41.442;23.240;2022-08-06T02:45:23;100042.00;;;23.66;58.47
51031;BME280;37058;41.442;23.240;2022-08-06T02:48:07;100044.09;;;23.56;60.47
51031;BME280;37058;41.442;23.240;2022-08-06T02:50:39;100040.03;;;23.54;61.75
51031;BME280;37058;41.442;23.240;2022-08-06T02:53:13;100047.03;;;23.48;62.43
51031;BME280;37058;41.442;23.240;2022-08-06T02:55:46;100051.09;;;23.50;62.15
51031;BME280;37058;41.442;23.240;2022-08-06T02:58:44;100050.03;;;23.43;62.03
51031;BME280;37058;41.442;23.240;2022-08-06T03:01:29;100043.28;;;23.44;61.89
51031;BME280;37058;41.442;23.240;2022-08-06T03:03:58;100041.69;;;23.43;61.82
51031;BME280;37058;41.442;23.240;2022-08-06T03:06:33;100043.19;;;23.40;62.07
51031;BME280;37058;41.442;23.240;2022-08-06T03:09:03;100048.16;;;23.34;61.78
51031;BME280;37058;41.442;23.240;2022-08-06T03:11:32;100038.06;;;23.30;61.39
51031;BME280;37058;41.442;23.240;2022-08-06T03:14:05;100053.63;;;23.31;61.51
51031;BME280;37058;41.442;23.240;2022-08-06T03:16:36;100050.84;;;23.31;61.86
51031;BME280;37058;41.442;23.240;2022-08-06T03:19:04;100047.81;;;23.24;62.22
51031;BME280;37058;41.442;23.240;2022-08-06T03:21:31;100049.22;;;23.18;62.18
51031;BME280;37058;41.442;23.240;2022-08-06T03:23:58;100049.44;;;23.12;62.34
51031;BME280;37058;41.442;23.240;2022-08-06T03:26:27;100051.16;;;23.05;62.65
51031;BME280;37058;41.442;23.240;2022-08-06T03:28:58;100062.16;;;23.01;63.20
51031;BME280;37058;41.442;23.240;2022-08-06T03:31:25;100061.91;;;22.94;63.52
51031;BME280;37058;41.442;23.240;2022-08-06T03:33:53;100063.97;;;22.85;63.89
51031;BME280;37058;41.442;23.240;2022-08-06T03:36:20;100065.25;;;22.87;64.17
51031;BME280;37058;41.442;23.240;2022-08-06T03:39:00;100064.88;;;22.77;64.58
51031;BME280;37058;41.442;23.240;2022-08-06T03:41:32;100070.50;;;22.68;65.16
51031;BME280;37058;41.442;23.240;2022-08-06T03:43:59;100068.75;;;22.63;65.28
51031;BME280;37058;41.442;23.240;2022-08-06T03:46:46;100067.13;;;22.62;65.14
51031;BME280;37058;41.442;23.240;2022-08-06T03:49:45;100063.88;;;22.60;64.78
51031;BME280;37058;41.442;23.240;2022-08-06T03:52:15;100080.72;;;22.64;64.45
51031;BME280;37058;41.442;23.240;2022-08-06T03:54:47;100082.44;;;22.68;64.17
51031;BME280;37058;41.442;23.240;2022-08-06T03:57:19;100077.03;;;22.72;64.81
51031;BME280;37058;41.442;23.240;2022-08-06T03:59:48;100082.03;;;22.79;64.49
51031;BME280;37058;41.442;23.240;2022-08-06T04:02:17;100085.06;;;22.86;64.79
51031;BME280;37058;41.442;23.240;2022-08-06T04:04:45;100095.28;;;22.82;64.89
51031;BME280;37058;41.442;23.240;2022-08-06T04:07:14;100097.00;;;22.86;64.28
51031;BME280;37058;41.442;23.240;2022-08-06T04:09:41;100093.56;;;22.89;64.15
51031;BME280;37058;41.442;23.240;2022-08-06T04:12:08;100096.69;;;22.88;64.04
51031;BME280;37058;41.442;23.240;2022-08-06T04:14:35;100102.41;;;22.91;64.03
51031;BME280;37058;41.442;23.240;2022-08-06T04:17:02;100098.09;;;22.94;62.83
51031;BME280;37058;41.442;23.240;2022-08-06T04:19:30;100101.50;;;23.00;61.64
51031;BME280;37058;41.442;23.240;2022-08-06T04:21:57;100107.66;;;23.05;60.82
51031;BME280;37058;41.442;23.240;2022-08-06T04:24:23;100092.72;;;23.10;60.39
51031;BME280;37058;41.442;23.240;2022-08-06T04:26:52;100099.56;;;23.12;60.23
51031;BME280;37058;41.442;23.240;2022-08-06T04:29:21;100096.34;;;23.23;59.94
51031;BME280;37058;41.442;23.240;2022-08-06T04:31:49;100098.09;;;23.64;58.76
51031;BME280;37058;41.442;23.240;2022-08-06T04:34:23;100105.47;;;23.81;58.32
51031;BME280;37058;41.442;23.240;2022-08-06T04:36:50;100109.06;;;23.94;57.44
51031;BME280;37058;41.442;23.240;2022-08-06T04:39:17;100109.53;;;23.84;57.92
51031;BME280;37058;41.442;23.240;2022-08-06T04:41:44;100105.28;;;24.14;57.00
51031;BME280;37058;41.442;23.240;2022-08-06T04:44:11;100103.59;;;24.38;55.81
51031;BME280;37058;41.442;23.240;2022-08-06T04:46:37;100110.97;;;24.18;56.52
51031;BME280;37058;41.442;23.240;2022-08-06T04:49:03;100115.88;;;24.09;59.07
51031;BME280;37058;41.442;23.240;2022-08-06T04:51:30;100114.59;;;24.18;57.60
51031;BME280;37058;41.442;23.240;2022-08-06T04:53:56;100113.28;;;24.28;58.71
51031;BME280;37058;41.442;23.240;2022-08-06T04:56:22;100108.03;;;24.79;57.79
51031;BME280;37058;41.442;23.240;2022-08-06T04:58:48;100114.44;;;24.96;56.65
51031;BME280;37058;41.442;23.240;2022-08-06T05:01:14;100114.75;;;24.78;57.61
51031;BME280;37058;41.442;23.240;2022-08-06T05:03:40;100117.84;;;24.61;59.45
51031;BME280;37058;41.442;23.240;2022-08-06T05:06:18;100116.50;;;24.55;58.83
51031;BME280;37058;41.442;23.240;2022-08-06T05:08:49;100109.09;;;24.47;59.65
51031;BME280;37058;41.442;23.240;2022-08-06T05:11:43;100116.66;;;24.34;57.96
51031;BME280;37058;41.442;23.240;2022-08-06T05:14:21;100103.03;;;24.32;58.75
51031;BME280;37058;41.442;23.240;2022-08-06T05:16:50;100115.16;;;24.24;59.39
51031;BME280;37058;41.442;23.240;2022-08-06T05:19:36;100116.22;;;24.07;60.44
51031;BME280;37058;41.442;23.240;2022-08-06T05:22:06;100113.13;;;23.96;61.61
51031;BME280;37058;41.442;23.240;2022-08-06T05:24:34;100113.69;;;24.02;61.26
51031;BME280;37058;41.442;23.240;2022-08-06T05:27:00;100105.69;;;24.00;59.07
51031;BME280;37058;41.442;23.240;2022-08-06T05:29:26;100107.75;;;24.04;58.91
51031;BME280;37058;41.442;23.240;2022-08-06T05:31:58;100108.22;;;24.06;58.68
51031;BME280;37058;41.442;23.240;2022-08-06T05:34:26;100103.94;;;24.08;57.96
51031;BME280;37058;41.442;23.240;2022-08-06T05:36:51;100100.41;;;24.23;56.54
51031;BME280;37058;41.442;23.240;2022-08-06T05:39:17;100099.66;;;24.39;57.01
51031;BME280;37058;41.442;23.240;2022-08-06T05:41:46;100107.06;;;24.59;56.78
51031;BME280;37058;41.442;23.240;2022-08-06T05:44:12;100094.97;;;24.83;55.45
51031;BME280;37058;41.442;23.240;2022-08-06T05:46:51;100111.47;;;25.64;53.07
51031;BME280;37058;41.442;23.240;2022-08-06T05:49:26;100102.28;;;25.64;51.00
51031;BME280;37058;41.442;23.240;2022-08-06T05:57:44;100106.44;;;26.21;48.44
51031;BME280;37058;41.442;23.240;2022-08-06T06:00:15;100106.88;;;26.23;48.54
51031;BME280;37058;41.442;23.240;2022-08-06T06:02:45;100103.88;;;26.32;49.12
51031;BME280;37058;41.442;23.240;2022-08-06T06:05:12;100101.84;;;26.68;48.21
51031;BME280;37058;41.442;23.240;2022-08-06T06:07:39;100107.28;;;28.18;45.69
51031;BME280;37058;41.442;23.240;2022-08-06T06:10:07;100103.09;;;28.65;44.62
51031;BME280;37058;41.442;23.240;2022-08-06T06:12:34;100099.59;;;28.76;42.85
51031;BME280;37058;41.442;23.240;2022-08-06T06:15:05;100096.56;;;28.58;41.60
51031;BME280;37058;41.442;23.240;2022-08-06T06:27:05;100093.75;;;29.29;38.03
51031;BME280;37058;41.442;23.240;2022-08-06T06:30:03;100087.94;;;29.11;39.45
51031;BME280;37058;41.442;23.240;2022-08-06T06:41:26;100075.72;;;28.96;39.40
51031;BME280;37058;41.442;23.240;2022-08-06T06:47:02;100066.13;;;28.97;39.75
51031;BME280;37058;41.442;23.240;2022-08-06T06:49:43;100060.13;;;29.02;40.52
51031;BME280;37058;41.442;23.240;2022-08-06T06:52:42;100059.38;;;29.05;40.73
51031;BME280;37058;41.442;23.240;2022-08-06T06:55:44;100043.41;;;29.13;39.84
51031;BME280;37058;41.442;23.240;2022-08-06T06:59:04;100051.91;;;29.24;39.90
51031;BME280;37058;41.442;23.240;2022-08-06T07:01:11;100039.13;;;29.30;39.44
51031;BME280;37058;41.442;23.240;2022-08-06T07:03:41;100042.38;;;29.35;39.09
51031;BME280;37058;41.442;23.240;2022-08-06T07:06:09;100039.22;;;29.41;39.19
51031;BME280;37058;41.442;23.240;2022-08-06T07:08:45;100038.44;;;29.47;38.93
51031;BME280;37058;41.442;23.240;2022-08-06T07:11:19;100034.50;;;29.55;38.79
51031;BME280;37058;41.442;23.240;2022-08-06T07:13:48;100043.84;;;29.67;37.94
51031;BME280;37058;41.442;23.240;2022-08-06T07:16:18;100029.03;;;29.77;38.16
51031;BME280;37058;41.442;23.240;2022-08-06T07:18:45;100031.47;;;29.82;38.46
51031;BME280;37058;41.442;23.240;2022-08-06T07:21:17;100025.47;;;29.84;38.56
51031;BME280;37058;41.442;23.240;2022-08-06T07:23:47;100021.47;;;29.88;38.48
51031;BME280;37058;41.442;23.240;2022-08-06T07:26:17;100023.94;;;29.97;38.21
51031;BME280;37058;41.442;23.240;2022-08-06T07:28:45;100018.72;;;30.02;38.01
51031;BME280;37058;41.442;23.240;2022-08-06T07:31:11;100013.53;;;30.12;38.41
51031;BME280;37058;41.442;23.240;2022-08-06T07:33:40;100013.56;;;30.19;37.97
51031;BME280;37058;41.442;23.240;2022-08-06T07:36:07;100011.63;;;30.27;38.18
51031;BME280;37058;41.442;23.240;2022-08-06T07:38:37;100002.00;;;30.38;36.25
51031;BME280;37058;41.442;23.240;2022-08-06T07:41:06;100000.41;;;30.48;35.81
51031;BME280;37058;41.442;23.240;2022-08-06T07:43:54;99998.81;;;30.51;34.25
51031;BME280;37058;41.442;23.240;2022-08-06T07:46:26;99999.66;;;30.51;34.71
51031;BME280;37058;41.442;23.240;2022-08-06T07:48:57;99999.63;;;30.58;35.36
51031;BME280;37058;41.442;23.240;2022-08-06T07:51:34;99998.47;;;30.70;34.21
51031;BME280;37058;41.442;23.240;2022-08-06T07:54:03;100002.94;;;30.85;34.56
51031;BME280;37058;41.442;23.240;2022-08-06T07:56:29;99994.09;;;31.01;34.43
51031;BME280;37058;41.442;23.240;2022-08-06T07:58:56;100000.13;;;31.14;33.67
51031;BME280;37058;41.442;23.240;2022-08-06T08:01:24;99989.66;;;31.25;33.32
51031;BME280;37058;41.442;23.240;2022-08-06T08:03:53;99986.03;;;31.36;34.10
51031;BME280;37058;41.442;23.240;2022-08-06T08:06:38;99987.66;;;31.44;33.32
51031;BME280;37058;41.442;23.240;2022-08-06T08:09:16;99992.50;;;31.50;33.40
51031;BME280;37058;41.442;23.240;2022-08-06T08:11:45;99979.19;;;31.58;33.60
51031;BME280;37058;41.442;23.240;2022-08-06T08:14:16;99977.13;;;31.73;34.08
51031;BME280;37058;41.442;23.240;2022-08-06T08:16:43;99978.69;;;31.85;33.20
51031;BME280;37058;41.442;23.240;2022-08-06T08:19:29;99975.44;;;32.01;33.33
51031;BME280;37058;41.442;23.240;2022-08-06T08:22:05;99973.75;;;32.17;33.01
51031;BME280;37058;41.442;23.240;2022-08-06T08:24:33;99980.94;;;32.33;32.79
51031;BME280;37058;41.442;23.240;2022-08-06T08:27:00;99974.44;;;32.39;32.31
51031;BME280;37058;41.442;23.240;2022-08-06T08:29:27;99972.81;;;32.38;32.06
51031;BME280;37058;41.442;23.240;2022-08-06T08:31:54;99969.59;;;32.40;32.57
51031;BME280;37058;41.442;23.240;2022-08-06T08:34:22;99966.34;;;32.45;32.23
51031;BME280;37058;41.442;23.240;2022-08-06T08:36:48;99964.72;;;32.44;32.55
51031;BME280;37058;41.442;23.240;2022-08-06T08:39:14;99961.50;;;32.49;33.06
51031;BME280;37058;41.442;23.240;2022-08-06T08:42:48;99954.19;;;32.55;32.25
51031;BME280;37058;41.442;23.240;2022-08-06T08:44:49;99951.00;;;32.50;32.60
51031;BME280;37058;41.442;23.240;2022-08-06T08:47:18;99955.84;;;32.49;32.62
51031;BME280;37058;41.442;23.240;2022-08-06T08:49:54;99953.41;;;32.48;32.43
51031;BME280;37058;41.442;23.240;2022-08-06T08:52:30;99949.78;;;32.47;31.97
51031;BME280;37058;41.442;23.240;2022-08-06T08:55:04;99948.56;;;32.48;30.90
51031;BME280;37058;41.442;23.240;2022-08-06T08:57:31;99953.41;;;32.51;31.23
51031;BME280;37058;41.442;23.240;2022-08-06T09:00:01;99947.78;;;32.51;30.18
51031;BME280;37058;41.442;23.240;2022-08-06T09:02:27;99946.13;;;32.54;30.75
51031;BME280;37058;41.442;23.240;2022-08-06T09:04:53;99942.88;;;32.55;30.47
51031;BME280;37058;41.442;23.240;2022-08-06T09:07:20;99937.97;;;32.67;31.65
51031;BME280;37058;41.442;23.240;2022-08-06T09:09:46;99939.88;;;32.80;31.40
51031;BME280;37058;41.442;23.240;2022-08-06T09:12:12;99932.06;;;32.95;30.67
51031;BME280;37058;41.442;23.240;2022-08-06T09:14:38;99931.16;;;33.09;30.84
51031;BME280;37058;41.442;23.240;2022-08-06T09:17:09;99924.59;;;33.23;30.10
51031;BME280;37058;41.442;23.240;2022-08-06T09:19:35;99926.84;;;33.39;29.99
51031;BME280;37058;41.442;23.240;2022-08-06T09:22:02;99921.06;;;33.50;30.21
51031;BME280;37058;41.442;23.240;2022-08-06T09:24:28;99916.13;;;33.57;29.53
51031;BME280;37058;41.442;23.240;2022-08-06T09:27:14;99911.97;;;33.69;29.21
51031;BME280;37058;41.442;23.240;2022-08-06T09:29:56;99920.84;;;33.71;29.12
51031;BME280;37058;41.442;23.240;2022-08-06T09:32:43;99914.28;;;33.78;29.76
51031;BME280;37058;41.442;23.240;2022-08-06T09:35:22;99908.06;;;33.90;30.41
51031;BME280;37058;41.442;23.240;2022-08-06T09:38:03;99905.66;;;33.88;28.87
51031;BME280;37058;41.442;23.240;2022-08-06T09:40:30;99904.09;;;33.84;28.90
51031;BME280;37058;41.442;23.240;2022-08-06T09:42:56;99895.53;;;33.87;27.80
51031;BME280;37058;41.442;23.240;2022-08-06T09:45:24;99896.25;;;33.95;28.63
51031;BME280;37058;41.442;23.240;2022-08-06T09:48:03;99893.78;;;34.01;27.76
51031;BME280;37058;41.442;23.240;2022-08-06T09:50:44;99898.56;;;34.07;27.86
51031;BME280;37058;41.442;23.240;2022-08-06T09:53:15;99887.13;;;34.15;27.19
51031;BME280;37058;41.442;23.240;2022-08-06T09:55:44;99883.81;;;34.20;27.56
51031;BME280;37058;41.442;23.240;2022-08-06T09:58:11;99884.56;;;34.24;26.22
51031;BME280;37058;41.442;23.240;2022-08-06T10:00:38;99878.34;;;34.33;26.19
51031;BME280;37058;41.442;23.240;2022-08-06T10:03:08;99877.84;;;34.41;26.87
51031;BME280;37058;41.442;23.240;2022-08-06T10:05:34;99872.84;;;34.49;26.76
51031;BME280;37058;41.442;23.240;2022-08-06T10:08:11;99868.28;;;34.55;27.02
51031;BME280;37058;41.442;23.240;2022-08-06T10:10:42;99873.00;;;34.65;26.55
51031;BME280;37058;41.442;23.240;2022-08-06T10:13:22;99856.66;;;34.73;26.29
51031;BME280;37058;41.442;23.240;2022-08-06T10:15:55;99849.75;;;34.74;26.42
51031;BME280;37058;41.442;23.240;2022-08-06T10:18:35;99848.84;;;34.81;26.81
51031;BME280;37058;41.442;23.240;2022-08-06T10:21:10;99850.88;;;34.80;26.83
51031;BME280;37058;41.442;23.240;2022-08-06T10:23:41;99857.28;;;34.84;26.94
51031;BME280;37058;41.442;23.240;2022-08-06T10:26:11;99853.13;;;34.89;26.25
51031;BME280;37058;41.442;23.240;2022-08-06T10:28:41;99844.13;;;34.94;26.63
51031;BME280;37058;41.442;23.240;2022-08-06T10:31:12;99855.13;;;34.92;27.01
51031;BME280;37058;41.442;23.240;2022-08-06T10:34:11;99849.59;;;34.85;25.95
51031;BME280;37058;41.442;23.240;2022-08-06T10:36:44;99837.13;;;34.79;25.42
51031;BME280;37058;41.442;23.240;2022-08-06T10:39:11;99838.28;;;34.81;25.85
51031;BME280;37058;41.442;23.240;2022-08-06T10:41:38;99826.16;;;34.81;25.86
51031;BME280;37058;41.442;23.240;2022-08-06T10:44:06;99826.59;;;34.79;25.77
51031;BME280;37058;41.442;23.240;2022-08-06T10:46:35;99815.59;;;34.81;26.40
51031;BME280;37058;41.442;23.240;2022-08-06T10:49:01;99819.97;;;34.86;25.90
51031;BME280;37058;41.442;23.240;2022-08-06T10:51:27;99817.44;;;34.91;26.84
51031;BME280;37058;41.442;23.240;2022-08-06T10:53:54;99820.22;;;34.95;26.17
51031;BME280;37058;41.442;23.240;2022-08-06T10:56:20;99823.72;;;35.03;26.51
51031;BME280;37058;41.442;23.240;2022-08-06T10:58:48;99818.75;;;35.10;26.34
51031;BME280;37058;41.442;23.240;2022-08-06T11:01:43;99826.25;;;35.21;25.60
51031;BME280;37058;41.442;23.240;2022-08-06T11:04:47;99819.19;;;35.29;26.07
51031;BME280;37058;41.442;23.240;2022-08-06T11:10:53;99813.41;;;35.52;24.47
51031;BME280;37058;41.442;23.240;2022-08-06T11:13:33;99811.81;;;35.51;23.75
51031;BME280;37058;41.442;23.240;2022-08-06T11:16:02;99816.69;;;35.51;24.55
51031;BME280;37058;41.442;23.240;2022-08-06T11:18:28;99812.88;;;35.61;24.32
51031;BME280;37058;41.442;23.240;2022-08-06T11:20:54;99815.63;;;35.65;24.88
51031;BME280;37058;41.442;23.240;2022-08-06T11:23:26;99816.72;;;35.71;24.86
51031;BME280;37058;41.442;23.240;2022-08-06T11:25:56;99805.53;;;35.80;25.29
51031;BME280;37058;41.442;23.240;2022-08-06T11:30:57;99806.81;;;35.95;24.44
51031;BME280;37058;41.442;23.240;2022-08-06T11:36:04;99809.31;;;35.93;24.15
51031;BME280;37058;41.442;23.240;2022-08-06T11:41:51;99801.06;;;35.99;24.26
51031;BME280;37058;41.442;23.240;2022-08-06T11:44:19;99791.44;;;35.93;24.15
51031;BME280;37058;41.442;23.240;2022-08-06T11:46:47;99793.84;;;35.94;24.22
51031;BME280;37058;41.442;23.240;2022-08-06T11:49:22;99791.44;;;35.93;23.49
51031;BME280;37058;41.442;23.240;2022-08-06T11:51:56;99792.53;;;35.99;24.55
51031;BME280;37058;41.442;23.240;2022-08-06T11:57:23;99786.53;;;35.77;24.53
51031;BME280;37058;41.442;23.240;2022-08-06T12:07:41;99777.84;;;35.28;24.48
51031;BME280;37058;41.442;23.240;2022-08-06T12:10:12;99782.41;;;35.22;26.24
51031;BME280;37058;41.442;23.240;2022-08-06T12:12:49;99777.75;;;35.11;26.18
51031;BME280;37058;41.442;23.240;2022-08-06T12:17:57;99772.41;;;34.93;25.46
51031;BME280;37058;41.442;23.240;2022-08-06T12:20:42;99774.22;;;34.84;26.05
51031;BME280;37058;41.442;23.240;2022-08-06T12:23:12;99772.84;;;34.72;25.56
51031;BME280;37058;41.442;23.240;2022-08-06T12:25:43;99772.59;;;34.63;25.28
51031;BME280;37058;41.442;23.240;2022-08-06T12:28:12;99772.31;;;34.53;25.93
51031;BME280;37058;41.442;23.240;2022-08-06T12:30:53;99765.06;;;34.52;26.34
51031;BME280;37058;41.442;23.240;2022-08-06T12:33:21;99760.94;;;34.57;26.27
51031;BME280;37058;41.442;23.240;2022-08-06T12:35:57;99756.88;;;34.58;25.95
51031;BME280;37058;41.442;23.240;2022-08-06T12:38:27;99756.88;;;34.58;26.63
51031;BME280;37058;41.442;23.240;2022-08-06T12:41:01;99755.31;;;34.53;26.24
51031;BME280;37058;41.442;23.240;2022-08-06T12:43:29;99754.50;;;34.53;26.46
51031;BME280;37058;41.442;23.240;2022-08-06T12:46:01;99746.44;;;34.51;25.45
51031;BME280;37058;41.442;23.240;2022-08-06T12:48:27;99753.78;;;34.49;26.09
51031;BME280;37058;41.442;23.240;2022-08-06T12:51:09;99752.63;;;34.46;27.11
51031;BME280;37058;41.442;23.240;2022-08-06T12:56:17;99754.28;;;34.44;26.15
51031;BME280;37058;41.442;23.240;2022-08-06T12:58:44;99754.63;;;34.46;26.31
51031;BME280;37058;41.442;23.240;2022-08-06T13:18:16;99743.22;;;34.26;26.96
51031;BME280;37058;41.442;23.240;2022-08-06T13:20:45;99747.72;;;34.23;27.28
51031;BME280;37058;41.442;23.240;2022-08-06T13:23:14;99750.25;;;34.18;27.14
51031;BME280;37058;41.442;23.240;2022-08-06T13:28:09;99744.06;;;33.99;26.94
51031;BME280;37058;41.442;23.240;2022-08-06T13:30:36;99739.78;;;33.87;26.93
51031;BME280;37058;41.442;23.240;2022-08-06T13:33:21;99744.38;;;33.78;27.33
51031;BME280;37058;41.442;23.240;2022-08-06T13:36:03;99745.31;;;33.71;27.08
51031;BME280;37058;41.442;23.240;2022-08-06T13:38:32;99742.56;;;33.64;26.92
51031;BME280;37058;41.442;23.240;2022-08-06T13:41:00;99740.59;;;33.61;27.64
51031;BME280;37058;41.442;23.240;2022-08-06T13:43:40;99740.28;;;33.52;26.96
51031;BME280;37058;41.442;23.240;2022-08-06T13:46:15;99731.78;;;33.52;27.57
51031;BME280;37058;41.442;23.240;2022-08-06T13:48:44;99728.59;;;33.50;27.66
51031;BME280;37058;41.442;23.240;2022-08-06T13:51:12;99719.75;;;33.48;27.82
51031;BME280;37058;41.442;23.240;2022-08-06T13:53:38;99721.34;;;33.49;27.35
51031;BME280;37058;41.442;23.240;2022-08-06T13:56:04;99727.00;;;33.49;27.67
51031;BME280;37058;41.442;23.240;2022-08-06T13:58:31;99718.13;;;33.46;27.30
51031;BME280;37058;41.442;23.240;2022-08-06T14:00:57;99721.34;;;33.49;28.12
51031;BME280;37058;41.442;23.240;2022-08-06T14:03:24;99724.16;;;33.49;27.29
51031;BME280;37058;41.442;23.240;2022-08-06T14:05:51;99717.25;;;33.50;28.02
51031;BME280;37058;41.442;23.240;2022-08-06T14:08:20;99715.59;;;33.56;27.83
51031;BME280;37058;41.442;23.240;2022-08-06T14:10:46;99719.53;;;33.62;27.99
51031;BME280;37058;41.442;23.240;2022-08-06T14:13:12;99708.19;;;33.65;27.79
51031;BME280;37058;41.442;23.240;2022-08-06T14:15:49;99714.56;;;33.70;27.50
51031;BME280;37058;41.442;23.240;2022-08-06T14:18:21;99704.03;;;33.70;26.84
51031;BME280;37058;41.442;23.240;2022-08-06T14:20:48;99703.56;;;33.75;27.43
51031;BME280;37058;41.442;23.240;2022-08-06T14:23:14;99698.91;;;33.88;27.20
51031;BME280;37058;41.442;23.240;2022-08-06T14:25:41;99697.94;;;33.99;26.18
51031;BME280;37058;41.442;23.240;2022-08-06T14:28:07;99693.78;;;34.07;26.03
51031;BME280;37058;41.442;23.240;2022-08-06T14:30:33;99698.53;;;34.14;26.18